createdAt,value
2017-06-12T00:00:12.907Z,20.76
2017-06-12T00:01:22.948Z,20.68
2017-06-12T00:02:33.302Z,20.75
2017-06-12T00:03:43.375Z,20.74
2017-06-12T00:04:53.980Z,20.68
2017-06-12T00:06:04.324Z,20.61
2017-06-12T00:07:14.681Z,20.54
2017-06-12T00:08:25.032Z,20.57
2017-06-12T00:09:35.394Z,20.44
2017-06-12T00:10:45.464Z,20.54
2017-06-12T00:11:55.799Z,20.49
2017-06-12T00:13:06.136Z,20.56
2017-06-12T00:14:16.168Z,20.49
2017-06-12T00:15:26.500Z,20.48
2017-06-12T00:16:36.868Z,20.46
2017-06-12T00:17:46.908Z,20.4
2017-06-12T00:18:57.254Z,20.37
2017-06-12T00:20:07.291Z,20.23
2017-06-12T00:21:17.332Z,20.25
2017-06-12T00:22:27.726Z,20.22
2017-06-12T00:23:37.772Z,20.19
2017-06-12T00:24:48.114Z,20.18
2017-06-12T00:25:58.454Z,20.19
2017-06-12T00:27:08.816Z,20.18
2017-06-12T00:28:19.175Z,20.22
2017-06-12T00:29:29.211Z,20.16
2017-06-12T00:30:39.568Z,20.16
2017-06-12T00:31:49.605Z,20.11
2017-06-12T00:32:59.956Z,20.05
2017-06-12T00:34:10.393Z,20.16
2017-06-12T00:35:20.741Z,20.04
2017-06-12T00:36:31.086Z,20.04
2017-06-12T00:37:41.428Z,20.07
2017-06-12T00:38:51.451Z,20.08
2017-06-12T00:40:01.785Z,20.05
2017-06-12T00:41:12.128Z,20.05
2017-06-12T00:42:22.544Z,20.08
2017-06-12T00:43:32.895Z,20.11
2017-06-12T00:44:42.926Z,19.95
2017-06-12T00:45:53.006Z,20.05
2017-06-12T00:47:03.037Z,20
2017-06-12T00:48:13.397Z,20.04
2017-06-12T00:49:23.442Z,20.02
2017-06-12T00:50:33.519Z,20.01
2017-06-12T00:51:43.910Z,19.97
2017-06-12T00:52:53.949Z,19.95
2017-06-12T00:54:03.687Z,19.97
2017-06-12T00:55:13.399Z,19.9
2017-06-12T00:56:23.731Z,19.87
2017-06-12T00:57:34.072Z,19.79
2017-06-12T00:58:44.420Z,19.82
2017-06-12T00:59:54.772Z,19.75
2017-06-12T01:01:05.125Z,19.74
2017-06-12T01:02:14.840Z,19.78
2017-06-12T01:03:24.890Z,19.75
2017-06-12T01:04:35.235Z,19.78
2017-06-12T01:05:45.285Z,19.78
2017-06-12T01:06:55.335Z,19.75
2017-06-12T01:08:05.689Z,19.79
2017-06-12T01:09:16.052Z,19.83
2017-06-12T01:10:26.386Z,19.78
2017-06-12T01:11:36.746Z,19.72
2017-06-12T01:12:47.086Z,19.72
2017-06-12T01:13:57.120Z,19.72
2017-06-12T01:15:07.159Z,19.64
2017-06-12T01:16:17.180Z,19.67
2017-06-12T01:17:27.225Z,19.71
2017-06-12T01:18:37.255Z,19.64
2017-06-12T01:19:47.299Z,19.61
2017-06-12T01:20:57.381Z,19.57
2017-06-12T01:22:07.731Z,19.61
2017-06-12T01:23:17.765Z,19.6
2017-06-12T01:24:27.788Z,19.49
2017-06-12T01:25:38.145Z,19.57
2017-06-12T01:26:48.547Z,19.53
2017-06-12T01:27:58.880Z,19.49
2017-06-12T01:29:09.211Z,19.42
2017-06-12T01:30:19.574Z,19.5
2017-06-12T01:31:29.915Z,19.49
2017-06-12T01:32:40.264Z,19.46
2017-06-12T01:33:50.599Z,19.46
2017-06-12T01:35:00.953Z,19.53
2017-06-12T01:36:10.992Z,19.56
2017-06-12T01:37:21.334Z,19.5
2017-06-12T01:38:31.370Z,19.55
2017-06-12T01:39:41.709Z,19.47
2017-06-12T01:40:51.745Z,19.43
2017-06-12T01:42:01.794Z,19.31
2017-06-12T01:43:12.138Z,19.31
2017-06-12T01:44:21.906Z,19.3
2017-06-12T01:45:32.468Z,19.27
2017-06-12T01:46:42.824Z,19.27
2017-06-12T01:47:52.860Z,19.27
2017-06-12T01:49:03.195Z,19.23
2017-06-12T01:50:13.217Z,19.13
2017-06-12T01:51:23.241Z,19.12
2017-06-12T01:52:33.587Z,19.12
2017-06-12T01:53:43.623Z,19.09
2017-06-12T01:54:53.970Z,19.09
2017-06-12T01:56:03.727Z,19.05
2017-06-12T01:57:13.749Z,18.97
2017-06-12T01:58:24.109Z,19.02
2017-06-12T01:59:34.452Z,18.96
2017-06-12T02:00:44.485Z,18.84
2017-06-12T02:01:54.922Z,18.89
2017-06-12T02:03:05.273Z,18.86
2017-06-12T02:04:15.619Z,18.86
2017-06-12T02:05:25.335Z,18.82
2017-06-12T02:06:35.370Z,18.79
2017-06-12T02:07:45.700Z,18.75
2017-06-12T02:08:56.036Z,18.75
2017-06-12T02:10:06.122Z,18.79
2017-06-12T02:11:16.169Z,18.79
2017-06-12T02:12:26.512Z,18.75
2017-06-12T02:13:36.602Z,18.79
2017-06-12T02:14:46.959Z,18.91
2017-06-12T02:15:57.307Z,18.87
2017-06-12T02:17:07.653Z,18.84
2017-06-12T02:18:17.681Z,18.82
2017-06-12T02:19:27.765Z,18.84
2017-06-12T02:20:38.130Z,18.82
2017-06-12T02:21:48.481Z,18.79
2017-06-12T02:22:58.523Z,18.76
2017-06-12T02:24:08.555Z,18.75
2017-06-12T02:25:18.578Z,18.68
2017-06-12T02:26:28.920Z,18.69
2017-06-12T02:27:39.279Z,18.68
2017-06-12T02:28:49.307Z,18.63
2017-06-12T02:29:59.664Z,18.63
2017-06-12T02:31:10.067Z,18.72
2017-06-12T02:32:20.102Z,18.72
2017-06-12T02:33:30.181Z,18.78
2017-06-12T02:34:40.232Z,18.75
2017-06-12T02:35:49.638Z,18.68
2017-06-12T02:37:00.039Z,18.69
2017-06-12T02:38:10.065Z,18.75
2017-06-12T02:39:20.411Z,18.71
2017-06-12T02:40:30.443Z,18.74
2017-06-12T02:41:40.777Z,18.69
2017-06-12T02:42:50.813Z,18.69
2017-06-12T02:44:01.156Z,18.78
2017-06-12T02:45:11.515Z,18.75
2017-06-12T02:46:21.853Z,18.81
2017-06-12T02:47:32.200Z,18.75
2017-06-12T02:48:42.558Z,18.87
2017-06-12T02:49:52.926Z,18.91
2017-06-12T02:51:03.266Z,18.84
2017-06-12T02:52:13.587Z,18.9
2017-06-12T02:53:23.609Z,18.89
2017-06-12T02:54:33.682Z,18.84
2017-06-12T02:55:44.033Z,18.86
2017-06-12T02:56:54.391Z,18.96
2017-06-12T02:58:04.414Z,18.96
2017-06-12T02:59:14.777Z,18.96
2017-06-12T03:00:25.134Z,19.09
2017-06-12T03:01:35.168Z,19.16
2017-06-12T03:33:00.792Z,17.17
2017-06-12T03:34:10.821Z,17.22
2017-06-12T03:35:21.156Z,17.22
2017-06-12T03:36:31.504Z,17.2
2017-06-12T03:37:41.860Z,17.27
2017-06-12T03:38:52.293Z,17.36
2017-06-12T03:40:02.635Z,17.55
2017-06-12T03:41:12.970Z,17.63
2017-06-12T03:42:23.317Z,17.88
2017-06-12T03:43:33.663Z,18.2
2017-06-12T03:44:43.992Z,18.26
2017-06-12T03:45:54.343Z,18.45
2017-06-12T03:47:04.419Z,18.65
2017-06-12T03:48:14.754Z,18.84
2017-06-12T03:49:24.793Z,18.94
2017-06-12T03:50:34.874Z,19.12
2017-06-12T03:51:45.229Z,19.28
2017-06-12T03:52:55.578Z,19.42
2017-06-12T03:54:05.916Z,19.57
2017-06-12T03:55:16.300Z,19.8
2017-06-12T03:56:26.655Z,19.93
2017-06-12T03:57:37.000Z,20.1
2017-06-12T03:58:47.034Z,20.12
2017-06-12T03:59:57.374Z,20.32
2017-06-12T04:01:07.416Z,20.37
2017-06-12T04:02:17.124Z,20.49
2017-06-12T04:03:27.480Z,20.54
2017-06-12T04:04:37.823Z,20.63
2017-06-12T04:05:48.180Z,20.78
2017-06-12T04:06:58.211Z,20.85
2017-06-12T04:08:08.556Z,20.9
2017-06-12T04:09:18.914Z,20.91
2017-06-12T04:10:29.268Z,21.11
2017-06-12T04:11:39.321Z,21.06
2017-06-12T04:12:49.660Z,21.21
2017-06-12T04:14:00.046Z,21.15
2017-06-12T04:15:10.382Z,21.22
2017-06-12T04:16:20.744Z,21.19
2017-06-12T04:17:30.790Z,21.12
2017-06-12T04:18:40.833Z,21.16
2017-06-12T04:19:51.225Z,21.19
2017-06-12T04:21:00.955Z,21.28
2017-06-12T04:22:11.014Z,21.37
2017-06-12T04:23:21.366Z,21.48
2017-06-12T04:24:31.715Z,21.56
2017-06-12T04:25:42.135Z,21.58
2017-06-12T04:26:52.169Z,21.68
2017-06-12T04:28:01.901Z,21.68
2017-06-12T04:29:12.241Z,21.78
2017-06-12T04:30:22.268Z,21.77
2017-06-12T04:31:31.998Z,21.89
2017-06-12T04:32:42.338Z,21.89
2017-06-12T04:33:52.681Z,22
2017-06-12T04:35:03.049Z,21.96
2017-06-12T04:36:13.079Z,22.15
2017-06-12T04:37:22.865Z,22.15
2017-06-12T04:38:33.217Z,22.2
2017-06-12T04:39:43.564Z,22.26
2017-06-12T04:40:53.914Z,22.38
2017-06-12T04:42:04.257Z,22.48
2017-06-12T04:43:14.356Z,22.59
2017-06-12T04:44:24.710Z,22.61
2017-06-12T04:45:34.729Z,22.81
2017-06-12T04:46:45.124Z,22.89
2017-06-12T04:47:55.162Z,23.04
2017-06-12T04:49:04.879Z,23.09
2017-06-12T04:50:14.908Z,23.25
2017-06-12T04:51:25.258Z,23.34
2017-06-12T04:52:35.603Z,23.35
2017-06-12T04:53:45.980Z,23.53
2017-06-12T04:54:56.373Z,23.52
2017-06-12T04:56:06.745Z,23.52
2017-06-12T04:57:17.296Z,23.59
2017-06-12T04:58:27.318Z,23.57
2017-06-12T04:59:37.041Z,23.59
2017-06-12T05:00:47.391Z,23.53
2017-06-12T05:01:57.458Z,23.48
2017-06-12T05:03:07.817Z,23.5
2017-06-12T05:04:18.166Z,23.48
2017-06-12T05:05:28.504Z,23.64
2017-06-12T05:06:38.577Z,23.7
2017-06-12T05:07:48.922Z,23.75
2017-06-12T05:08:59.262Z,23.74
2017-06-12T05:10:09.312Z,23.85
2017-06-12T05:11:19.668Z,23.92
2017-06-12T05:12:30.052Z,24.08
2017-06-12T05:13:40.406Z,24.17
2017-06-12T05:14:50.762Z,24.42
2017-06-12T05:16:00.796Z,24.56
2017-06-12T05:17:11.150Z,24.77
2017-06-12T05:18:21.659Z,25.44
2017-06-12T05:19:32.025Z,26.24
2017-06-12T05:20:42.369Z,27.62
2017-06-12T05:21:52.719Z,28.43
2017-06-12T05:23:03.070Z,28.45
2017-06-12T05:24:13.117Z,28.43
2017-06-12T05:25:23.464Z,28.92
2017-06-12T05:26:33.496Z,27.71
2017-06-12T05:27:43.837Z,27
2017-06-12T05:28:54.185Z,26.61
2017-06-12T05:30:04.245Z,26.32
2017-06-12T05:31:14.592Z,26.96
2017-06-12T05:32:24.940Z,28.7
2017-06-12T05:33:35.281Z,30.35
2017-06-12T05:34:45.629Z,31.44
2017-06-12T05:35:55.990Z,32.47
2017-06-12T05:37:06.336Z,33.12
2017-06-12T05:38:16.375Z,32.71
2017-06-12T05:39:26.727Z,33.55
2017-06-12T05:40:36.784Z,34.45
2017-06-12T05:41:47.187Z,34.45
2017-06-12T05:42:57.547Z,33.55
2017-06-12T05:44:07.896Z,33.97
2017-06-12T05:45:18.265Z,34.24
2017-06-12T05:46:28.623Z,32.98
2017-06-12T05:47:39.191Z,32.03
2017-06-12T05:48:49.235Z,32.45
2017-06-12T05:49:59.266Z,32.75
2017-06-12T05:51:09.629Z,32.38
2017-06-12T05:52:19.961Z,32.13
2017-06-12T05:53:30.329Z,32.69
2017-06-12T05:54:40.678Z,34.08
2017-06-12T05:55:51.024Z,34.77
2017-06-12T05:57:01.058Z,34.89
2017-06-12T05:58:11.407Z,34.26
2017-06-12T05:59:21.180Z,34.75
2017-06-12T06:00:31.536Z,34.19
2017-06-12T06:01:41.571Z,33.9
2017-06-12T06:02:51.966Z,33.55
2017-06-12T06:04:02.324Z,33.46
2017-06-12T06:05:12.722Z,33.17
2017-06-12T06:06:23.080Z,32.93
2017-06-12T06:07:33.424Z,32.89
2017-06-12T06:08:43.776Z,32.49
2017-06-12T06:09:54.126Z,32.17
2017-06-12T06:11:04.537Z,32.09
2017-06-12T06:12:14.572Z,32.25
2017-06-12T06:13:24.920Z,31.74
2017-06-12T06:14:35.264Z,31.43
2017-06-12T06:15:45.614Z,31.15
2017-06-12T06:16:56.006Z,30.93
2017-06-12T06:18:06.058Z,30.7
2017-06-12T06:19:16.112Z,30.37
2017-06-12T06:20:26.458Z,30.16
2017-06-12T06:21:36.813Z,29.92
2017-06-12T06:22:47.159Z,29.79
2017-06-12T06:23:57.204Z,29.65
2017-06-12T06:25:07.551Z,29.43
2017-06-12T06:26:17.596Z,29.4
2017-06-12T06:27:27.934Z,29.33
2017-06-12T06:28:38.345Z,29.24
2017-06-12T06:29:48.725Z,29.17
2017-06-12T06:30:59.072Z,29.35
2017-06-12T06:32:09.422Z,29.88
2017-06-12T06:33:19.786Z,30.14
2017-06-12T06:34:30.190Z,30.77
2017-06-12T06:35:40.555Z,31.31
2017-06-12T06:36:50.578Z,32.03
2017-06-12T06:38:00.304Z,32.5
2017-06-12T06:39:10.656Z,33.02
2017-06-12T06:40:20.989Z,33.36
2017-06-12T06:41:31.025Z,33.43
2017-06-12T06:42:41.377Z,33.16
2017-06-12T06:43:51.424Z,32.9
2017-06-12T06:45:01.769Z,32.61
2017-06-12T06:46:12.116Z,32.38
2017-06-12T06:47:22.152Z,32.42
2017-06-12T06:48:32.504Z,32.13
2017-06-12T06:49:42.862Z,31.91
2017-06-12T06:50:52.899Z,31.78
2017-06-12T06:52:03.293Z,31.47
2017-06-12T06:53:13.637Z,31.33
2017-06-12T06:54:23.678Z,31.12
2017-06-12T06:55:34.044Z,30.93
2017-06-12T06:56:44.145Z,30.73
2017-06-12T06:57:54.242Z,30.49
2017-06-12T06:59:04.590Z,30.25
2017-06-12T07:00:14.641Z,30.04
2017-06-12T07:01:25.006Z,29.7
2017-06-12T07:02:35.361Z,29.48
2017-06-12T07:03:45.447Z,29.3
2017-06-12T07:04:55.803Z,29.03
2017-06-12T07:06:06.182Z,28.86
2017-06-12T07:07:16.217Z,28.65
2017-06-12T07:08:26.251Z,28.53
2017-06-12T07:09:36.643Z,28.45
2017-06-12T07:10:46.679Z,28.49
2017-06-12T07:11:57.015Z,28.48
2017-06-12T07:13:06.744Z,28.45
2017-06-12T07:14:16.786Z,28.39
2017-06-12T07:15:26.549Z,28.27
2017-06-12T07:16:36.891Z,28.24
2017-06-12T07:17:47.248Z,28.18
2017-06-12T07:18:57.592Z,28.11
2017-06-12T07:20:07.935Z,28.08
2017-06-12T07:21:18.385Z,28.02
2017-06-12T07:22:28.420Z,28.02
2017-06-12T07:23:38.791Z,27.99
2017-06-12T07:24:48.831Z,27.86
2017-06-12T07:25:59.176Z,27.91
2017-06-12T07:27:09.587Z,27.93
2017-06-12T07:28:19.950Z,28.02
2017-06-12T07:29:29.985Z,27.98
2017-06-12T07:30:40.340Z,28.02
2017-06-12T07:31:50.380Z,27.98
2017-06-12T07:33:00.733Z,27.93
2017-06-12T07:34:10.769Z,28.02
2017-06-12T07:35:20.815Z,28.05
2017-06-12T07:36:31.161Z,28.11
2017-06-12T07:37:41.528Z,28.11
2017-06-12T07:38:51.875Z,28.16
2017-06-12T07:40:02.241Z,28.17
2017-06-12T07:41:12.583Z,28.36
2017-06-12T07:42:22.947Z,28.43
2017-06-12T07:43:33.310Z,28.46
2017-06-12T07:44:43.719Z,28.49
2017-06-12T07:45:53.760Z,28.46
2017-06-12T07:47:04.107Z,28.54
2017-06-12T07:48:14.609Z,28.6
2017-06-12T07:49:24.955Z,28.7
2017-06-12T07:50:35.305Z,28.68
2017-06-12T07:51:45.646Z,28.83
2017-06-12T07:52:56.044Z,28.86
2017-06-12T07:54:06.463Z,28.92
2017-06-12T07:55:16.485Z,29.08
2017-06-12T07:56:26.829Z,29.2
2017-06-12T07:57:37.177Z,29.3
2017-06-12T07:58:46.897Z,29.3
2017-06-12T07:59:56.985Z,29.5
2017-06-12T08:01:07.070Z,29.5
2017-06-12T08:02:16.810Z,29.47
2017-06-12T08:03:27.156Z,29.58
2017-06-12T08:04:36.887Z,29.6
2017-06-12T08:05:46.931Z,29.72
2017-06-12T08:06:57.286Z,29.75
2017-06-12T08:08:07.320Z,29.72
2017-06-12T08:09:17.352Z,29.75
2017-06-12T08:10:27.712Z,29.7
2017-06-12T08:11:38.110Z,29.77
2017-06-12T08:12:48.467Z,29.84
2017-06-12T08:13:58.828Z,29.88
2017-06-12T08:15:09.167Z,29.92
2017-06-12T08:16:19.531Z,29.94
2017-06-12T08:17:29.888Z,29.97
2017-06-12T08:18:39.611Z,30.09
2017-06-12T08:19:49.955Z,30.07
2017-06-12T08:21:00.368Z,30.18
2017-06-12T08:22:10.733Z,30.28
2017-06-12T08:23:21.089Z,30.42
2017-06-12T08:24:31.499Z,30.51
2017-06-12T08:25:41.542Z,30.7
2017-06-12T08:26:51.992Z,30.81
2017-06-12T08:28:01.715Z,30.88
2017-06-12T08:29:11.755Z,31.08
2017-06-12T08:30:22.122Z,31.22
2017-06-12T08:31:32.460Z,31.26
2017-06-12T08:32:42.848Z,31.43
2017-06-12T08:33:53.202Z,31.37
2017-06-12T08:35:03.548Z,31.3
2017-06-12T08:36:13.277Z,31.31
2017-06-12T08:37:23.319Z,31.18
2017-06-12T08:38:33.406Z,31.15
2017-06-12T08:39:43.754Z,31.22
2017-06-12T08:40:53.474Z,31.41
2017-06-12T08:42:04.079Z,31.67
2017-06-12T08:43:14.442Z,32
2017-06-12T08:44:24.849Z,32.34
2017-06-12T08:45:34.682Z,32.71
2017-06-12T08:46:44.761Z,32.8
2017-06-12T08:47:55.133Z,32.94
2017-06-12T08:49:05.496Z,33.02
2017-06-12T08:50:15.903Z,33.06
2017-06-12T08:51:25.936Z,33.24
2017-06-12T08:52:36.272Z,33.31
2017-06-12T08:53:46.604Z,33.5
2017-06-12T08:54:56.650Z,33.75
2017-06-12T08:56:06.993Z,34.08
2017-06-12T08:57:17.335Z,34.3
2017-06-12T08:58:27.066Z,34.54
2017-06-12T08:59:37.105Z,34.83
2017-06-12T09:00:47.460Z,35.01
2017-06-12T09:01:57.857Z,35.08
2017-06-12T09:03:08.223Z,34.96
2017-06-12T09:04:18.602Z,34.94
2017-06-12T09:05:28.952Z,35.04
2017-06-12T09:06:39.321Z,35.06
2017-06-12T09:07:49.403Z,34.97
2017-06-12T09:08:59.761Z,35.08
2017-06-12T09:10:10.123Z,35.06
2017-06-12T09:11:20.484Z,35.02
2017-06-12T09:12:31.106Z,35.02
2017-06-12T09:13:41.513Z,35.01
2017-06-12T09:14:51.558Z,35.21
2017-06-12T09:16:01.601Z,35.23
2017-06-12T09:17:11.648Z,35.31
2017-06-12T09:18:21.700Z,35.45
2017-06-12T09:19:31.786Z,35.39
2017-06-12T09:20:42.153Z,35.4
2017-06-12T09:21:52.512Z,35.2
2017-06-12T09:23:02.237Z,34.89
2017-06-12T09:24:11.955Z,34.78
2017-06-12T09:25:22.314Z,34.51
2017-06-12T09:26:32.667Z,34.83
2017-06-12T09:27:43.014Z,34.91
2017-06-12T09:28:53.372Z,35.09
2017-06-12T09:30:03.733Z,35.23
2017-06-12T09:31:14.119Z,35.09
2017-06-12T09:32:24.466Z,35.12
2017-06-12T09:33:34.517Z,35.05
2017-06-12T09:34:44.905Z,35.12
2017-06-12T09:35:55.273Z,35.04
2017-06-12T09:37:05.681Z,35.08
2017-06-12T09:38:16.041Z,35.15
2017-06-12T09:39:26.099Z,35.18
2017-06-12T09:40:36.279Z,35.28
2017-06-12T09:41:46.336Z,35.34
2017-06-12T09:42:56.734Z,35.28
2017-06-12T09:44:07.100Z,35.4
2017-06-12T09:45:17.137Z,35.24
2017-06-12T09:46:27.207Z,35.28
2017-06-12T09:47:37.266Z,35.21
2017-06-12T09:48:47.632Z,35.06
2017-06-12T09:49:58.000Z,35.26
2017-06-12T09:51:08.359Z,35.23
2017-06-12T09:52:18.713Z,35.11
2017-06-12T09:53:29.133Z,34.87
2017-06-12T09:54:39.177Z,34.58
2017-06-12T09:55:49.542Z,34.91
2017-06-12T09:56:59.888Z,35.18
2017-06-12T09:58:09.921Z,35.34
2017-06-12T09:59:20.338Z,35.35
2017-06-12T10:00:30.396Z,35.58
2017-06-12T10:01:40.756Z,35.58
2017-06-12T10:02:51.136Z,35.64
2017-06-12T10:04:01.492Z,35.61
2017-06-12T10:05:11.901Z,35.67
2017-06-12T10:06:22.263Z,35.64
2017-06-12T10:07:32.650Z,35.67
2017-06-12T10:08:42.993Z,35.62
2017-06-12T10:09:53.030Z,35.64
2017-06-12T10:11:03.394Z,35.64
2017-06-12T10:12:13.748Z,35.61
2017-06-12T10:13:24.108Z,35.58
2017-06-12T10:14:34.464Z,35.68
2017-06-12T10:15:44.913Z,35.64
2017-06-12T10:16:55.523Z,35.67
2017-06-12T10:18:05.575Z,35.71
2017-06-12T10:19:15.618Z,35.72
2017-06-12T10:20:25.665Z,35.72
2017-06-12T10:21:36.036Z,35.71
2017-06-12T10:22:46.391Z,35.69
2017-06-12T10:23:56.445Z,35.67
2017-06-12T10:25:06.812Z,35.64
2017-06-12T10:26:17.167Z,35.77
2017-06-12T10:27:27.214Z,35.94
2017-06-12T10:28:37.567Z,35.94
2017-06-12T10:29:47.939Z,35.94
2017-06-12T10:30:58.295Z,36.09
2017-06-12T10:32:08.327Z,36.14
2017-06-12T10:33:18.385Z,36.19
2017-06-12T10:34:28.786Z,36.24
2017-06-12T10:35:39.143Z,36.32
2017-06-12T10:36:48.551Z,36.4
2017-06-12T10:37:58.918Z,36.44
2017-06-12T10:39:08.964Z,36.56
2017-06-12T10:40:19.375Z,36.55
2017-06-12T10:41:29.722Z,36.62
2017-06-12T10:42:39.442Z,36.73
2017-06-12T10:43:49.480Z,36.71
2017-06-12T10:44:59.837Z,36.7
2017-06-12T10:46:10.258Z,36.74
2017-06-12T10:47:20.606Z,36.83
2017-06-12T10:48:30.971Z,36.92
2017-06-12T10:49:41.322Z,36.96
2017-06-12T10:50:51.385Z,37.08
2017-06-12T10:52:01.793Z,37.08
2017-06-12T10:53:12.145Z,37.12
2017-06-12T10:54:22.511Z,37.05
2017-06-12T10:55:32.567Z,37.11
2017-06-12T10:56:42.945Z,37.12
2017-06-12T10:57:53.036Z,37.15
2017-06-12T10:59:03.083Z,37.29
2017-06-12T11:00:13.453Z,37.34
2017-06-12T11:01:23.820Z,37.34
2017-06-12T11:02:34.184Z,37.41
2017-06-12T11:03:44.595Z,37.48
2017-06-12T11:04:54.946Z,37.49
2017-06-12T11:06:04.984Z,37.49
2017-06-12T11:07:15.044Z,37.51
2017-06-12T11:08:25.102Z,37.51
2017-06-12T11:09:35.200Z,37.56
2017-06-12T11:10:45.250Z,37.61
2017-06-12T11:11:55.623Z,37.59
2017-06-12T11:13:05.979Z,37.66
2017-06-12T11:14:16.345Z,37.81
2017-06-12T11:15:26.736Z,37.83
2017-06-12T11:16:37.091Z,37.86
2017-06-12T11:17:47.452Z,37.9
2017-06-12T11:18:57.516Z,37.86
2017-06-12T11:20:08.072Z,38.02
2017-06-12T11:21:18.487Z,38.06
2017-06-12T11:22:28.858Z,38.15
2017-06-12T11:23:38.913Z,38.22
2017-06-12T11:24:49.271Z,38.43
2017-06-12T11:25:59.638Z,38.49
2017-06-12T11:27:10.047Z,38.54
2017-06-12T11:28:19.773Z,38.55
2017-06-12T11:29:30.154Z,38.58
2017-06-12T11:30:40.535Z,38.64
2017-06-12T11:31:50.895Z,38.73
2017-06-12T11:33:00.964Z,38.74
2017-06-12T11:34:11.338Z,38.71
2017-06-12T11:35:21.696Z,38.74
2017-06-12T11:36:32.056Z,38.76
2017-06-12T11:37:42.411Z,38.74
2017-06-12T11:38:52.765Z,38.76
2017-06-12T11:40:02.823Z,38.66
2017-06-12T11:41:13.184Z,38.59
2017-06-12T11:42:23.540Z,38.61
2017-06-12T11:43:33.896Z,38.52
2017-06-12T11:44:44.251Z,38.56
2017-06-12T11:45:54.606Z,38.54
2017-06-12T11:47:04.985Z,38.55
2017-06-12T11:48:15.041Z,38.58
2017-06-12T11:49:25.402Z,38.56
2017-06-12T11:50:35.504Z,38.61
2017-06-12T11:51:45.567Z,38.52
2017-06-12T11:52:55.934Z,38.5
2017-06-12T11:54:06.326Z,38.55
2017-06-12T11:55:16.381Z,38.58
2017-06-12T11:56:26.503Z,38.55
2017-06-12T11:57:36.861Z,38.65
2017-06-12T11:58:47.223Z,38.76
2017-06-12T11:59:57.276Z,38.73
2017-06-12T12:01:07.623Z,38.8
2017-06-12T12:02:18.048Z,38.89
2017-06-12T12:03:28.405Z,39.08
2017-06-12T12:04:38.747Z,39.33
2017-06-12T12:05:48.806Z,39.16
2017-06-12T12:06:59.203Z,39.08
2017-06-12T12:08:09.606Z,38.99
2017-06-12T12:09:19.963Z,39.27
2017-06-12T12:10:29.713Z,39.19
2017-06-12T12:11:39.827Z,39.22
2017-06-12T12:12:49.884Z,39.08
2017-06-12T12:14:00.245Z,39
2017-06-12T12:15:10.637Z,38.87
2017-06-12T12:16:20.993Z,38.73
2017-06-12T12:17:31.366Z,38.46
2017-06-12T12:18:41.714Z,38.35
2017-06-12T12:19:51.485Z,38.05
2017-06-12T12:21:01.536Z,38
2017-06-12T12:22:11.904Z,38.05
2017-06-12T12:23:22.279Z,38.61
2017-06-12T12:24:32.331Z,39
2017-06-12T12:25:42.760Z,39.27
2017-06-12T12:26:52.816Z,39.52
2017-06-12T12:28:03.174Z,39.67
2017-06-12T12:29:13.520Z,39.83
2017-06-12T12:30:23.876Z,39.83
2017-06-12T12:31:34.288Z,39.91
2017-06-12T12:32:44.640Z,39.74
2017-06-12T12:33:54.986Z,39.96
2017-06-12T12:35:05.044Z,40.01
2017-06-12T12:36:14.790Z,39.78
2017-06-12T12:37:24.892Z,39.67
2017-06-12T12:38:35.243Z,39.57
2017-06-12T12:39:45.604Z,39.6
2017-06-12T12:40:55.976Z,39.46
2017-06-12T12:42:06.027Z,39.71
2017-06-12T12:43:16.415Z,39.64
2017-06-12T12:44:26.770Z,39.69
2017-06-12T12:45:36.824Z,39.83
2017-06-12T12:46:47.204Z,39.74
2017-06-12T12:47:57.251Z,39.65
2017-06-12T12:49:07.043Z,39.91
2017-06-12T12:50:17.401Z,40.2
2017-06-12T12:51:27.458Z,40.4
2017-06-12T12:52:37.816Z,40.59
2017-06-12T12:53:47.872Z,40.57
2017-06-12T12:54:58.344Z,40.69
2017-06-12T12:56:08.706Z,40.51
2017-06-12T12:57:19.059Z,40.34
2017-06-12T12:58:29.426Z,40.25
2017-06-12T12:59:39.789Z,40.15
2017-06-12T13:00:50.224Z,40.1
2017-06-12T13:02:00.587Z,40.05
2017-06-12T13:03:10.954Z,39.96
2017-06-12T13:04:21.347Z,39.94
2017-06-12T13:05:31.724Z,39.87
2017-06-12T13:06:41.838Z,39.74
2017-06-12T13:07:52.219Z,39.72
2017-06-12T13:09:02.589Z,39.68
2017-06-12T13:10:12.652Z,39.75
2017-06-12T13:11:22.701Z,40.03
2017-06-12T13:12:32.807Z,40.03
2017-06-12T13:13:43.181Z,40.06
2017-06-12T13:14:53.545Z,40.13
2017-06-12T13:16:03.585Z,40.13
2017-06-12T13:17:13.961Z,39.88
2017-06-12T13:18:24.409Z,39.94
2017-06-12T13:19:34.144Z,39.84
2017-06-12T13:20:43.882Z,39.79
2017-06-12T13:21:53.619Z,39.71
2017-06-12T13:23:03.994Z,39.81
2017-06-12T13:24:13.458Z,39.71
2017-06-12T13:25:23.493Z,39.76
2017-06-12T13:26:33.868Z,39.65
2017-06-12T13:27:43.629Z,39.49
2017-06-12T13:28:53.984Z,39.37
2017-06-12T13:30:04.393Z,39.25
2017-06-12T13:31:14.437Z,39.12
2017-06-12T13:32:24.814Z,38.85
2017-06-12T13:33:34.847Z,38.59
2017-06-12T13:34:45.235Z,38.44
2017-06-12T13:35:55.335Z,38.58
2017-06-12T13:37:05.400Z,38.78
2017-06-12T13:38:15.758Z,39.12
2017-06-12T13:39:26.111Z,39.13
2017-06-12T13:40:36.167Z,39.4
2017-06-12T13:41:46.580Z,39.71
2017-06-12T13:42:56.923Z,39.97
2017-06-12T13:44:07.287Z,39.84
2017-06-12T13:45:17.329Z,39.6
2017-06-12T13:46:27.691Z,39.52
2017-06-12T13:47:38.095Z,39.06
2017-06-12T13:48:48.447Z,39.15
2017-06-12T13:49:58.483Z,38.9
2017-06-12T13:51:08.224Z,38.83
2017-06-12T13:52:18.275Z,39.01
2017-06-12T13:53:28.689Z,39.33
2017-06-12T13:54:39.069Z,39.04
2017-06-12T13:55:49.122Z,39.06
2017-06-12T13:56:59.176Z,38.83
2017-06-12T13:58:09.235Z,39.09
2017-06-12T13:59:19.361Z,39.33
2017-06-12T14:00:29.082Z,39.49
2017-06-12T14:01:39.447Z,39.15
2017-06-12T14:02:49.810Z,38.8
2017-06-12T14:04:00.171Z,38.65
2017-06-12T14:05:10.294Z,38.64
2017-06-12T14:06:20.649Z,38.64
2017-06-12T14:07:31.025Z,38.73
2017-06-12T14:08:41.381Z,38.61
2017-06-12T14:09:51.748Z,38.27
2017-06-12T14:11:02.163Z,38.02
2017-06-12T14:12:12.546Z,37.83
2017-06-12T14:13:22.931Z,37.79
2017-06-12T14:14:33.320Z,37.81
2017-06-12T14:15:43.665Z,37.66
2017-06-12T14:16:53.781Z,37.48
2017-06-12T14:18:04.150Z,37.37
2017-06-12T14:19:14.524Z,37.12
2017-06-12T14:20:24.877Z,36.81
2017-06-12T14:21:35.239Z,36.65
2017-06-12T14:22:45.341Z,36.41
2017-06-12T14:23:55.402Z,36.26
2017-06-12T14:25:05.749Z,36.25
2017-06-12T14:26:16.106Z,36.24
2017-06-12T14:27:26.460Z,36.44
2017-06-12T14:28:36.869Z,36.61
2017-06-12T14:29:47.285Z,36.77
2017-06-12T14:30:57.644Z,36.88
2017-06-12T14:32:08.008Z,36.9
2017-06-12T14:33:18.375Z,36.93
2017-06-12T14:34:28.792Z,37.04
2017-06-12T14:35:39.170Z,37.04
2017-06-12T14:36:49.221Z,37.22
2017-06-12T14:37:59.599Z,37.18
2017-06-12T14:39:09.956Z,37.19
2017-06-12T14:40:20.312Z,37.15
2017-06-12T14:41:30.667Z,36.97
2017-06-12T14:42:41.045Z,36.89
2017-06-12T14:43:51.438Z,36.83
2017-06-12T14:45:01.843Z,36.84
2017-06-12T14:46:11.962Z,36.9
2017-06-12T14:47:22.326Z,37.23
2017-06-12T14:48:32.072Z,37.61
2017-06-12T14:49:42.132Z,37.87
2017-06-12T14:50:52.482Z,37.87
2017-06-12T14:52:02.907Z,37.96
2017-06-12T14:53:13.280Z,38.05
2017-06-12T14:54:23.334Z,37.83
2017-06-12T14:55:33.699Z,37.56
2017-06-12T14:56:44.044Z,37.34
2017-06-12T14:57:54.449Z,37.34
2017-06-12T14:59:04.821Z,37.26
2017-06-12T15:00:15.373Z,37.29
2017-06-12T15:01:25.760Z,37.27
2017-06-12T15:02:36.143Z,37.27
2017-06-12T15:03:46.545Z,37.34
2017-06-12T15:04:56.623Z,37.3
2017-06-12T15:06:06.997Z,37.34
2017-06-12T15:07:17.070Z,37.27
2017-06-12T15:08:27.131Z,37.39
2017-06-12T15:09:37.575Z,37.24
2017-06-12T15:10:47.660Z,37.37
2017-06-12T15:11:58.040Z,37.27
2017-06-12T15:13:08.122Z,37.18
2017-06-12T15:14:18.202Z,37.12
2017-06-12T15:15:28.630Z,37.22
2017-06-12T15:16:39.073Z,37.15
2017-06-12T15:17:49.430Z,37.07
2017-06-12T15:18:59.817Z,37.17
2017-06-12T15:20:09.894Z,37.34
2017-06-12T15:21:19.986Z,37.39
2017-06-12T15:22:30.057Z,37.46
2017-06-12T15:23:40.454Z,37.39
2017-06-12T15:24:50.812Z,37.39
2017-06-12T15:26:01.189Z,37.31
2017-06-12T15:27:11.612Z,37.39
2017-06-12T15:28:21.667Z,37.33
2017-06-12T15:29:32.045Z,37.36
2017-06-12T15:30:42.468Z,37.34
2017-06-12T15:31:52.843Z,37.34
2017-06-12T15:33:03.250Z,37.3
2017-06-12T15:34:13.628Z,37.46
2017-06-12T15:35:23.675Z,37.42
2017-06-12T15:36:34.058Z,37.24
2017-06-12T15:37:44.437Z,37.15